createdAt,value
2019-03-12T04:47:01.376Z,0.1
2019-03-12T04:49:01.092Z,0.2
2019-03-12T04:50:02.167Z,0.3
2019-03-12T04:52:01.350Z,0.4
2019-03-12T04:53:06.096Z,0.5
2019-03-12T04:55:01.101Z,0.7
2019-03-12T04:56:01.091Z,0.8
2019-03-12T04:57:01.271Z,0.9
2019-03-12T04:58:01.094Z,1.1
2019-03-12T04:59:01.093Z,1.3
2019-03-12T05:00:01.097Z,1.6
2019-03-12T05:01:01.096Z,1.9
2019-03-12T05:02:01.333Z,2.1
2019-03-12T05:03:01.099Z,2.5
2019-03-12T05:04:01.092Z,2.9
2019-03-12T05:05:01.105Z,3.4
2019-03-12T05:06:01.099Z,4.0
2019-03-12T05:07:01.255Z,4.7
2019-03-12T05:08:01.099Z,5.7
2019-03-12T05:09:01.100Z,6.7
2019-03-12T05:10:01.094Z,8.0
2019-03-12T05:11:01.096Z,9.5
2019-03-12T05:12:01.343Z,11.4
2019-03-12T05:13:01.095Z,13.5
2019-03-12T05:14:01.095Z,16.1
2019-03-12T05:15:01.118Z,19.2
2019-03-12T05:16:01.096Z,22.9
2019-03-12T05:17:01.305Z,27.3
2019-03-12T05:18:01.095Z,32.4
2019-03-12T05:19:01.100Z,38.5
2019-03-12T05:20:01.103Z,45.7
2019-03-12T05:21:01.107Z,54.3
2019-03-12T05:22:01.241Z,64.3
2019-03-12T05:23:01.111Z,76.3
2019-03-12T05:25:01.096Z,93.3
2019-03-12T05:26:01.097Z,113.8
2019-03-12T05:27:01.244Z,138.4
2019-03-12T05:28:01.098Z,168.0
2019-03-12T05:29:01.093Z,203.3
2019-03-12T05:30:01.100Z,245.3
2019-03-12T05:31:06.098Z,295.6
2019-03-12T05:32:01.240Z,356.3
2019-03-12T05:33:01.097Z,430.4
2019-03-12T05:34:01.101Z,521.0
2019-03-12T05:35:01.106Z,629.0
2019-03-12T05:36:06.096Z,753.5
2019-03-12T05:37:01.952Z,893.1
2019-03-12T05:38:01.100Z,1047.0
2019-03-12T05:39:01.099Z,1215.0
2019-03-12T05:40:06.101Z,1394.9
2019-03-12T05:41:01.106Z,1588.1
2019-03-12T05:42:01.250Z,1793.9
2019-03-12T05:43:01.110Z,2015.5
2019-03-12T05:44:01.107Z,2252.3
2019-03-12T05:45:06.111Z,2500.7
2019-03-12T05:46:01.112Z,2763.8
2019-03-12T05:47:01.253Z,3048.2
2019-03-12T05:48:01.111Z,3353.8
2019-03-12T05:49:01.107Z,3679.8
2019-03-12T05:50:01.146Z,4032.3
2019-03-12T05:51:01.104Z,4421.3
2019-03-12T05:53:01.232Z,4914.4
2019-03-12T05:54:01.090Z,5447.4
2019-03-12T05:55:01.088Z,6012.7
2019-03-12T05:56:01.138Z,6602.8
2019-03-12T05:57:01.093Z,7215.9
2019-03-12T05:58:01.244Z,7849.8
2019-03-12T05:59:01.098Z,8502.9
2019-03-12T06:00:01.904Z,9153.9
2019-03-12T06:01:06.105Z,9831.3
2019-03-12T06:02:01.099Z,10538.7
2019-03-12T06:03:01.254Z,11253.1
2019-03-12T06:04:01.105Z,11976.1
2019-03-12T06:05:01.098Z,12613.6
2019-03-12T06:06:01.091Z,13336.8
2019-03-12T06:07:01.123Z,13978.3
2019-03-12T06:08:01.245Z,14465.0
2019-03-12T06:09:01.093Z,14917.5
2019-03-12T06:10:01.696Z,15330.8
2019-03-12T06:11:01.094Z,15752.0
2019-03-12T06:12:01.096Z,16060.1
2019-03-12T06:13:01.277Z,16334.9
2019-03-12T06:14:01.095Z,16573.5
2019-03-12T06:15:01.123Z,17057.7
2019-03-12T06:16:01.103Z,17631.1
2019-03-12T06:17:01.123Z,18041.9
2019-03-12T06:18:01.244Z,18520.0
2019-03-12T06:19:01.097Z,18868.3
2019-03-12T06:20:01.123Z,19225.5
2019-03-12T06:21:01.095Z,19553.3
2019-03-12T06:22:01.094Z,19967.5
2019-03-12T06:23:01.308Z,20413.7
2019-03-12T06:24:01.100Z,21130.1
2019-03-12T06:25:01.099Z,21639.9
2019-03-12T06:26:01.099Z,21944.0
2019-03-12T06:27:01.100Z,22446.1
2019-03-12T06:28:01.246Z,23015.1
2019-03-12T06:29:01.103Z,23537.1
2019-03-12T06:30:06.095Z,23409.2
2019-03-12T06:31:01.103Z,23287.1
2019-03-12T06:32:01.104Z,23360.7
2019-03-12T06:33:01.254Z,23163.9
2019-03-12T06:34:01.152Z,23230.9
2019-03-12T06:35:01.106Z,23320.5
2019-03-12T06:36:01.573Z,23152.5
2019-03-12T06:37:01.098Z,22898.3
2019-03-12T06:38:01.330Z,22728.1
2019-03-12T06:39:01.125Z,22217.5
2019-03-12T06:40:06.098Z,21968.9
2019-03-12T06:41:01.104Z,21904.5
2019-03-12T06:42:01.105Z,21828.5
2019-03-12T06:43:01.316Z,21719.3
2019-03-12T06:44:01.135Z,21801.3
2019-03-12T06:45:01.102Z,22472.7
2019-03-12T06:46:01.104Z,22676.3
2019-03-12T06:47:01.108Z,22674.8
2019-03-12T06:48:01.259Z,22759.9
2019-03-12T06:49:06.107Z,22546.5
2019-03-12T06:50:02.260Z,22369.9
2019-03-12T06:52:01.087Z,22230.1
2019-03-12T06:53:01.229Z,22100.4
2019-03-12T06:54:01.117Z,21856.3
2019-03-12T06:55:01.088Z,21848.3
2019-03-12T06:56:01.087Z,21838.3
2019-03-12T06:57:01.088Z,21800.4
2019-03-12T06:58:01.245Z,21704.7
2019-03-12T06:59:01.113Z,21694.5
2019-03-12T07:00:01.110Z,21525.5
2019-03-12T07:01:01.096Z,21472.2
2019-03-12T07:02:01.101Z,21667.3
2019-03-12T07:03:01.313Z,22085.5
2019-03-12T07:04:01.104Z,22715.7
2019-03-12T07:05:01.097Z,23376.6
2019-03-12T07:06:01.090Z,24016.9
2019-03-12T07:07:01.311Z,24657.3
2019-03-12T07:08:01.251Z,25364.4
2019-03-12T07:09:01.370Z,25979.6
2019-03-12T07:10:01.101Z,26560.9
2019-03-12T07:11:01.094Z,26982.1
2019-03-12T07:12:01.092Z,27485.4
2019-03-12T07:13:01.272Z,27803.7
2019-03-12T07:14:01.105Z,28056.3
2019-03-12T07:15:01.197Z,28302.1
2019-03-12T07:16:01.096Z,28285.6
2019-03-12T07:17:01.137Z,28408.5
2019-03-12T07:18:01.277Z,28504.3
2019-03-12T07:19:01.097Z,28500.3
2019-03-12T07:20:01.112Z,28583.8
2019-03-12T07:21:01.098Z,28731.7
2019-03-12T07:22:01.097Z,29043.3
2019-03-12T07:23:01.247Z,29352.7
2019-03-12T07:24:02.079Z,29836.6
2019-03-12T07:25:01.098Z,30213.7
2019-03-12T07:26:01.101Z,30751.3
2019-03-12T07:27:01.095Z,31240.6
2019-03-12T07:28:01.277Z,31869.7
2019-03-12T07:29:01.095Z,32430.2
2019-03-12T07:30:01.103Z,32954.9
2019-03-12T07:31:01.147Z,33466.3
2019-03-12T07:32:01.099Z,33962.9
2019-03-12T07:33:01.238Z,34430.5
2019-03-12T07:34:01.097Z,35009.9
2019-03-12T07:35:01.140Z,35739.2
2019-03-12T07:36:01.100Z,36589.7
2019-03-12T07:37:06.102Z,37549.2
2019-03-12T07:38:01.350Z,38566.3
2019-03-12T07:39:01.150Z,39760.3
2019-03-12T07:40:01.094Z,41059.0
2019-03-12T07:41:01.098Z,42437.2
2019-03-12T07:42:06.097Z,43983.5
2019-03-12T07:43:01.241Z,45708.4
2019-03-12T07:44:01.099Z,47655.3
2019-03-12T07:45:02.157Z,49674.0
2019-03-12T07:46:01.097Z,51648.3
2019-03-12T07:47:06.103Z,53577.1
2019-03-12T07:48:01.248Z,55457.5
2019-03-12T07:49:01.104Z,57022.5
2019-03-12T07:50:01.103Z,58226.1
2019-03-12T07:51:01.102Z,59122.2
2019-03-12T07:52:08.584Z,59826.8
2019-03-12T07:53:01.247Z,60486.8
2019-03-12T07:54:01.097Z,61063.0
2019-03-12T07:55:01.106Z,61734.6
2019-03-12T07:56:01.109Z,62355.7
2019-03-12T07:57:01.134Z,62774.7
2019-03-12T07:58:01.260Z,63004.5
2019-03-12T07:59:01.106Z,63023.3
2019-03-12T08:00:01.119Z,63023.3
2019-03-12T08:04:01.261Z,63191.9
2019-03-12T08:05:01.104Z,63574.3
2019-03-12T08:06:06.115Z,64078.6
2019-03-12T08:07:01.113Z,64621.2
2019-03-12T08:08:01.140Z,65103.5
2019-03-12T08:09:01.324Z,65442.9
2019-03-12T08:10:01.472Z,65535.0
2019-03-12T08:15:01.337Z,65535.0
2019-03-12T08:30:06.099Z,65535.0
2019-03-12T08:45:06.160Z,65535.0
2019-03-12T09:00:01.383Z,65535.0
2019-03-12T09:16:01.405Z,65535.0
2019-03-12T09:17:01.144Z,65493.8
2019-03-12T09:18:01.095Z,65350.8
2019-03-12T09:19:01.425Z,65189.3
2019-03-12T09:30:01.122Z,65189.3
2019-03-12T09:32:01.236Z,65230.5
2019-03-12T09:33:01.094Z,65373.5
2019-03-12T09:34:01.106Z,65535.0
2019-03-12T09:38:01.250Z,65320.6
2019-03-12T09:39:06.103Z,65032.0
2019-03-12T09:40:01.101Z,64661.3
2019-03-12T09:41:01.098Z,64330.3
2019-03-12T09:42:01.100Z,64252.3
2019-03-12T09:45:01.378Z,64252.3
2019-03-12T09:52:01.237Z,63638.1
2019-03-12T09:53:01.095Z,63852.5
2019-03-12T09:54:06.097Z,64141.1
2019-03-12T09:55:01.106Z,64511.7
2019-03-12T09:56:01.102Z,64842.8
2019-03-12T09:57:01.239Z,64920.7
2019-03-12T10:00:01.107Z,64920.7
2019-03-12T10:07:01.383Z,65535.0
2019-03-12T10:15:01.166Z,65535.0
2019-03-12T10:30:01.092Z,65535.0
2019-03-12T10:36:01.414Z,65247.6
2019-03-12T10:37:11.189Z,64762.7
2019-03-12T10:45:01.306Z,64762.7
2019-03-12T10:51:01.306Z,65050.1
2019-03-12T10:52:06.102Z,65535.0
2019-03-12T11:00:01.459Z,65535.0
2019-03-12T11:14:01.107Z,65262.5
2019-03-12T11:15:01.111Z,64621.7
2019-03-12T11:16:03.135Z,64585.7
2019-03-12T11:17:01.278Z,63730.5
2019-03-12T11:18:01.104Z,63194.5
2019-03-12T11:19:01.104Z,62599.4
2019-03-12T11:20:01.108Z,62483.9
2019-03-12T11:22:01.349Z,61318.0
2019-03-12T11:23:01.106Z,60522.4
2019-03-12T11:24:01.112Z,59355.1
2019-03-12T11:25:01.106Z,58149.5
2019-03-12T11:26:01.156Z,57218.0
2019-03-12T11:27:01.252Z,55608.1
2019-03-12T11:28:01.113Z,53483.5
2019-03-12T11:29:01.111Z,52156.1
2019-03-12T11:30:01.105Z,50791.0
2019-03-12T11:31:01.139Z,48846.0
2019-03-12T11:32:01.246Z,48793.2
2019-03-12T11:33:01.099Z,48242.7
2019-03-12T11:34:01.107Z,48411.6
2019-03-12T11:35:01.106Z,48351.0
2019-03-12T11:36:01.198Z,47712.1
2019-03-12T11:38:01.148Z,46914.9
2019-03-12T11:39:01.179Z,45712.9
2019-03-12T11:40:02.132Z,46704.3
2019-03-12T11:41:06.141Z,47909.9
2019-03-12T11:42:01.253Z,48841.3
2019-03-12T11:43:01.130Z,50451.3
2019-03-12T11:44:01.131Z,52575.8
2019-03-12T11:45:01.558Z,54175.7
2019-03-12T11:46:01.174Z,56181.7
2019-03-12T11:47:02.127Z,58162.6
2019-03-12T11:48:01.254Z,59070.7
2019-03-12T11:49:01.111Z,60157.1
2019-03-12T11:50:01.309Z,60583.3
2019-03-12T11:51:01.124Z,60728.2
2019-03-12T11:52:01.319Z,61367.1
2019-03-12T11:53:01.414Z,62730.7
2019-03-12T11:54:01.104Z,64042.7
2019-03-12T11:55:06.126Z,63530.4
2019-03-12T11:56:01.124Z,62808.7
2019-03-12T11:57:01.249Z,62269.7
2019-03-12T11:58:01.094Z,61369.6
2019-03-12T11:59:01.125Z,60354.1
2019-03-12T12:00:06.105Z,59866.8
2019-03-12T12:01:01.126Z,59275.7
2019-03-12T12:02:02.774Z,58884.3
2019-03-12T12:04:01.221Z,58628.4
2019-03-12T12:05:06.143Z,57456.1
2019-03-12T12:06:01.117Z,56362.2
2019-03-12T12:07:01.248Z,55392.9
2019-03-12T12:08:01.129Z,55870.7
2019-03-12T12:09:01.127Z,55490.9
2019-03-12T12:10:06.127Z,56179.1
2019-03-12T12:11:01.098Z,56900.8
2019-03-12T12:12:01.321Z,57439.8
2019-03-12T12:13:01.090Z,58339.9
2019-03-12T12:14:01.126Z,59355.3
2019-03-12T12:15:01.097Z,59842.7
2019-03-12T12:16:01.134Z,60433.8
2019-03-12T12:17:01.273Z,60825.2
2019-03-12T12:19:06.157Z,61081.1
2019-03-12T12:20:01.094Z,62253.3
2019-03-12T12:21:01.106Z,63378.5
2019-03-12T12:22:01.315Z,64347.8
2019-03-12T12:23:01.094Z,64469.5
2019-03-12T12:24:06.106Z,65535.0
2019-03-12T12:30:01.310Z,65535.0
2019-03-12T12:41:01.308Z,65059.3
2019-03-12T12:45:01.219Z,65035.3
2019-03-12T12:46:01.231Z,64450.7
2019-03-12T12:47:01.103Z,63769.8
2019-03-12T12:48:06.095Z,62484.2
2019-03-12T12:49:01.100Z,60941.7
2019-03-12T12:50:01.093Z,59552.2
2019-03-12T12:51:03.327Z,57957.7
2019-03-12T12:52:01.096Z,56681.5
2019-03-12T12:53:01.117Z,55316.7
2019-03-12T12:54:01.100Z,53884.8
2019-03-12T12:55:01.098Z,52316.5
2019-03-12T12:56:01.247Z,51639.9
2019-03-12T12:57:06.097Z,50637.5
2019-03-12T12:58:01.099Z,49674.1
2019-03-12T12:59:01.097Z,49123.5
2019-03-12T13:00:01.109Z,48935.7
2019-03-12T13:01:01.238Z,49194.5
2019-03-12T13:02:01.125Z,49394.3
2019-03-12T13:03:01.095Z,50153.7
2019-03-12T13:04:01.101Z,50939.2
2019-03-12T13:05:01.096Z,51049.9
2019-03-12T13:06:01.238Z,51783.9
2019-03-12T13:07:01.131Z,52105.6
2019-03-12T13:08:01.101Z,52268.2
2019-03-12T13:09:01.094Z,51974.9
2019-03-12T13:10:01.093Z,51840.1
2019-03-12T13:11:01.240Z,51235.3
2019-03-12T13:12:01.130Z,50377.9
2019-03-12T13:13:01.096Z,49322.9
2019-03-12T13:14:01.099Z,48371.8
2019-03-12T13:15:01.105Z,46853.8
2019-03-12T13:16:01.283Z,45345.1
2019-03-12T13:17:06.110Z,43584.6
2019-03-12T13:18:01.110Z,42170.5
2019-03-12T13:19:01.106Z,40794.3
2019-03-12T13:20:01.120Z,40340.6
2019-03-12T13:21:01.245Z,38860.2
2019-03-12T13:22:01.134Z,37884.9
2019-03-12T13:23:01.114Z,36919.5
2019-03-12T13:24:01.100Z,36474.1
2019-03-12T13:25:01.109Z,36155.1
2019-03-12T13:26:01.247Z,35942.5
2019-03-12T13:27:06.105Z,35809.3
2019-03-12T13:28:01.102Z,36115.8
2019-03-12T13:29:01.108Z,35620.0
2019-03-12T13:30:01.111Z,35377.6
2019-03-12T13:32:12.824Z,35059.4
2019-03-12T13:33:02.017Z,35726.7
2019-03-12T13:34:01.089Z,36134.9
2019-03-12T13:35:01.091Z,36890.9
2019-03-12T13:36:06.083Z,37080.4
2019-03-12T13:37:01.239Z,37495.7
2019-03-12T13:38:01.085Z,37268.5
2019-03-12T13:39:01.096Z,37309.2
2019-03-12T13:40:01.546Z,37457.9
2019-03-12T13:41:06.173Z,37137.5
2019-03-12T13:42:01.241Z,36594.4
2019-03-12T13:43:01.105Z,36215.1
2019-03-12T13:44:01.119Z,35510.7
2019-03-12T13:45:01.361Z,35424.5
2019-03-12T13:46:06.097Z,35240.7
2019-03-12T13:47:01.244Z,35281.1
2019-03-12T13:48:01.134Z,34812.8
2019-03-12T13:49:01.127Z,34471.1
2019-03-12T13:50:01.755Z,33939.9
2019-03-12T13:51:06.100Z,33498.0
2019-03-12T13:52:01.257Z,33618.2
2019-03-12T13:53:01.110Z,34023.7
2019-03-12T13:54:01.099Z,34501.1
2019-03-12T13:55:02.266Z,34475.0
2019-03-12T13:56:06.094Z,35050.9
2019-03-12T13:57:01.304Z,35816.3
2019-03-12T13:58:01.096Z,36384.1
2019-03-12T13:59:01.096Z,37430.5
2019-03-12T14:00:01.099Z,37862.2
2019-03-12T14:01:01.119Z,38749.5
2019-03-12T14:02:01.236Z,39320.3
2019-03-12T14:03:01.094Z,39594.2
2019-03-12T14:04:10.282Z,39719.5
2019-03-12T14:05:01.098Z,39929.9
2019-03-12T14:06:06.095Z,40936.1
2019-03-12T14:07:01.242Z,41595.2
2019-03-12T14:08:01.105Z,42191.4
2019-03-12T14:09:01.105Z,42963.7
2019-03-12T14:10:01.104Z,44210.3
2019-03-12T14:11:06.100Z,44629.1
2019-03-12T14:12:01.266Z,45115.5
2019-03-12T14:13:01.105Z,45470.7
2019-03-12T14:14:01.106Z,45407.5
2019-03-12T14:15:01.109Z,45310.4
2019-03-12T14:16:01.884Z,45279.0
2019-03-12T14:17:01.329Z,46096.5
2019-03-12T14:18:01.141Z,47152.1
2019-03-12T14:19:01.110Z,48021.6
2019-03-12T14:20:01.103Z,48578.1
2019-03-12T14:21:06.111Z,48184.2
2019-03-12T14:22:01.256Z,47780.1
2019-03-12T14:23:01.108Z,47254.1
2019-03-12T14:24:01.148Z,46010.3
2019-03-12T14:25:01.104Z,44465.1
2019-03-12T14:26:06.113Z,43548.1
2019-03-12T14:27:01.258Z,42655.2
2019-03-12T14:28:01.103Z,41988.1
2019-03-12T14:29:01.107Z,41647.9
2019-03-12T14:30:01.110Z,42131.4
2019-03-12T14:31:01.143Z,42159.1
2019-03-12T14:32:01.334Z,41722.3
2019-03-12T14:34:01.086Z,41019.8
2019-03-12T14:35:01.094Z,40081.6
2019-03-12T14:36:01.095Z,39109.5
2019-03-12T14:37:01.095Z,38262.4
2019-03-12T14:38:01.307Z,37648.9
2019-03-12T14:39:01.095Z,37127.2
2019-03-12T14:40:01.103Z,37062.1
2019-03-12T14:41:01.135Z,37113.9
2019-03-12T14:42:01.111Z,37124.1
2019-03-12T14:43:01.251Z,36905.5
2019-03-12T14:44:01.104Z,36772.3
2019-03-12T14:45:01.102Z,36303.9
2019-03-12T14:46:06.104Z,35358.9
2019-03-12T14:47:01.108Z,34139.5
2019-03-12T14:48:01.252Z,32732.3
2019-03-12T14:49:01.116Z,31545.9
2019-03-12T14:50:01.104Z,30864.3
2019-03-12T14:51:06.107Z,30521.7
2019-03-12T14:53:01.240Z,30299.3
2019-03-12T14:54:01.092Z,29882.8
2019-03-12T14:55:01.094Z,29340.1
2019-03-12T14:56:06.085Z,28700.3
2019-03-12T14:57:01.100Z,28266.1
2019-03-12T14:58:01.229Z,27838.9
2019-03-12T14:59:01.094Z,27530.1
2019-03-12T15:00:01.089Z,27153.9
2019-03-12T15:01:06.100Z,26875.7
2019-03-12T15:02:06.105Z,26438.8
2019-03-12T15:03:02.051Z,26248.8
2019-03-12T15:04:01.094Z,25978.7
2019-03-12T15:05:01.101Z,25612.3
2019-03-12T15:06:01.095Z,24944.9
2019-03-12T15:07:06.107Z,24314.7
2019-03-12T15:08:01.247Z,23797.1
2019-03-12T15:09:01.095Z,23432.4
2019-03-12T15:10:01.098Z,23058.5
2019-03-12T15:11:01.108Z,22813.2
2019-03-12T15:12:01.128Z,22461.5
2019-03-12T15:13:01.294Z,22044.9
2019-03-12T15:14:01.123Z,21584.0
2019-03-12T15:15:01.106Z,21110.7
2019-03-12T15:16:01.103Z,20635.7
2019-03-12T15:17:01.153Z,20056.9
2019-03-12T15:18:01.309Z,19601.9
2019-03-12T15:19:01.107Z,19259.3
2019-03-12T15:20:01.110Z,19043.5
2019-03-12T15:21:01.108Z,18850.8
2019-03-12T15:22:01.138Z,18587.3
2019-03-12T15:23:01.255Z,18243.6
2019-03-12T15:24:01.105Z,17817.5
2019-03-12T15:25:01.104Z,17667.8
2019-03-12T15:26:01.161Z,17501.2
2019-03-12T15:27:01.142Z,17140.7
2019-03-12T15:28:01.255Z,16724.0
2019-03-12T15:29:01.104Z,16346.8
2019-03-12T15:30:01.118Z,16066.9
2019-03-12T15:31:02.320Z,15602.9
2019-03-12T15:33:01.240Z,15354.7
2019-03-12T15:34:01.087Z,14982.5
2019-03-12T15:35:01.086Z,14707.5
2019-03-12T15:36:01.156Z,14372.0
2019-03-12T15:37:01.090Z,14197.3
2019-03-12T15:38:01.236Z,14058.3
2019-03-12T15:39:01.097Z,13792.9
2019-03-12T15:40:01.100Z,13691.3
2019-03-12T15:41:01.093Z,13538.5
2019-03-12T15:42:01.093Z,13247.3
2019-03-12T15:43:01.251Z,13044.1
2019-03-12T15:44:01.106Z,13031.3
2019-03-12T15:45:01.099Z,12976.8
2019-03-12T15:46:02.324Z,12864.3
2019-03-12T15:47:01.126Z,12852.0
2019-03-12T15:48:01.238Z,12815.0
2019-03-12T15:49:01.092Z,12912.2
2019-03-12T15:50:01.152Z,12931.8
2019-03-12T15:51:01.096Z,13147.4
2019-03-12T15:52:01.093Z,13335.7
2019-03-12T15:53:01.337Z,13423.1
2019-03-12T15:54:01.095Z,13628.4
2019-03-12T15:55:01.126Z,13714.7
2019-03-12T15:56:01.094Z,13735.7
2019-03-12T15:57:01.102Z,13760.7
2019-03-12T15:58:01.246Z,13919.5
2019-03-12T15:59:01.100Z,14002.4
2019-03-12T16:00:01.128Z,14063.8
2019-03-12T16:01:02.634Z,14002.6
2019-03-12T16:02:01.093Z,13919.3
2019-03-12T16:03:01.404Z,13888.2
2019-03-12T16:04:01.159Z,13724.9
2019-03-12T16:05:01.346Z,13531.7
2019-03-12T16:06:01.096Z,13206.3
2019-03-12T16:07:01.869Z,12898.3
2019-03-12T16:08:01.243Z,12670.4
2019-03-12T16:09:01.101Z,12427.6
2019-03-12T16:10:01.134Z,12160.6
2019-03-12T16:11:01.102Z,11890.7
2019-03-12T16:12:01.098Z,11672.3
2019-03-12T16:13:01.374Z,11425.7
2019-03-12T16:14:01.102Z,11153.3
2019-03-12T16:15:01.130Z,10909.4
2019-03-12T16:16:01.100Z,10650.9
2019-03-12T16:17:01.110Z,10419.2
2019-03-12T16:18:01.319Z,10205.8
2019-03-12T16:19:01.100Z,10038.0
2019-03-12T16:20:01.143Z,9921.3
2019-03-12T16:21:01.107Z,9824.6
2019-03-12T16:22:01.101Z,9807.3
2019-03-12T16:23:01.258Z,9740.5
2019-03-12T16:24:01.098Z,9574.5
2019-03-12T16:25:01.140Z,9528.6
2019-03-12T16:26:01.100Z,9461.5
2019-03-12T16:27:03.203Z,9428.7
2019-03-12T16:28:01.256Z,9328.1
2019-03-12T16:29:01.108Z,9277.7
2019-03-12T16:30:01.140Z,9231.4
2019-03-12T16:31:01.110Z,9215.8
2019-03-12T16:32:01.105Z,9103.7
2019-03-12T16:33:01.254Z,8949.3
2019-03-12T16:34:01.103Z,8832.7
2019-03-12T16:35:01.141Z,8672.7
2019-03-12T16:37:01.105Z,8464.2
2019-03-12T16:38:01.239Z,8196.3
2019-03-12T16:39:01.097Z,7928.8
2019-03-12T16:40:01.136Z,7710.3
2019-03-12T16:41:02.090Z,7417.2
2019-03-12T16:42:01.097Z,7172.9
2019-03-12T16:43:01.240Z,6892.7
2019-03-12T16:44:01.103Z,6645.5
2019-03-12T16:45:01.130Z,6323.9
2019-03-12T16:46:01.097Z,6042.5
2019-03-12T16:47:01.102Z,5778.8
2019-03-12T16:48:01.256Z,5573.5
2019-03-12T16:49:01.096Z,5374.0
2019-03-12T16:50:01.095Z,5098.6
2019-03-12T16:51:01.121Z,4852.1
2019-03-12T16:52:01.101Z,4616.9
2019-03-12T16:53:01.250Z,4366.6
2019-03-12T16:54:06.099Z,4136.1
2019-03-12T16:55:01.098Z,3922.9
2019-03-12T16:56:01.098Z,3707.2
2019-03-12T16:57:01.095Z,3472.2
2019-03-12T16:58:01.247Z,3267.3
2019-03-12T16:59:08.411Z,3106.4
2019-03-12T17:00:01.104Z,2948.7
2019-03-12T17:01:01.103Z,2778.5
2019-03-12T17:02:01.153Z,2607.4
2019-03-12T17:03:01.247Z,2435.1
2019-03-12T17:04:06.095Z,2264.8
2019-03-12T17:05:03.789Z,2109.3
2019-03-12T17:06:01.098Z,1963.1
2019-03-12T17:07:01.098Z,1827.9
2019-03-12T17:08:01.249Z,1705.9
2019-03-12T17:09:06.107Z,1586.8
2019-03-12T17:10:01.097Z,1475.1
2019-03-12T17:11:02.851Z,1364.6
2019-03-12T17:12:01.099Z,1261.0
2019-03-12T17:13:01.356Z,1174.0
2019-03-12T17:14:01.136Z,1084.1
2019-03-12T17:15:01.101Z,996.9
2019-03-12T17:16:01.099Z,916.6
2019-03-12T17:17:01.099Z,841.9
2019-03-12T17:18:01.256Z,780.4
2019-03-12T17:19:01.132Z,723.4
2019-03-12T17:20:01.099Z,673.2
2019-03-12T17:21:01.109Z,629.2
2019-03-12T17:22:01.109Z,589.1
2019-03-12T17:23:01.318Z,552.1
2019-03-12T17:24:06.107Z,515.7
2019-03-12T17:25:06.110Z,482.1
2019-03-12T17:26:01.104Z,450.1
2019-03-12T17:27:01.101Z,417.1
2019-03-12T17:28:01.254Z,388.3
2019-03-12T17:29:01.106Z,361.5
2019-03-12T17:30:06.106Z,336.6
2019-03-12T17:31:01.104Z,311.1
2019-03-12T17:32:01.112Z,285.7
2019-03-12T17:33:01.264Z,259.6
2019-03-12T17:34:01.114Z,233.3
2019-03-12T17:36:01.092Z,209.1
2019-03-12T17:37:01.088Z,186.4
2019-03-12T17:38:01.235Z,165.6
2019-03-12T17:39:01.087Z,146.8
2019-03-12T17:40:01.125Z,129.3
2019-03-12T17:41:01.095Z,111.2
2019-03-12T17:42:01.101Z,94.5
2019-03-12T17:43:01.311Z,80.9
2019-03-12T17:44:02.172Z,68.8
2019-03-12T17:45:01.131Z,58.3
2019-03-12T17:46:01.095Z,49.5
2019-03-12T17:47:01.095Z,41.5
2019-03-12T17:48:01.370Z,35.0
2019-03-12T17:49:01.092Z,29.6
2019-03-12T17:50:01.132Z,24.7
2019-03-12T17:51:01.097Z,20.8
2019-03-12T17:52:01.104Z,17.5
2019-03-12T17:53:01.240Z,14.9
2019-03-12T17:54:01.092Z,12.6
2019-03-12T17:55:01.128Z,10.8
2019-03-12T17:56:01.093Z,9.3
2019-03-12T17:57:01.095Z,7.9
2019-03-12T17:58:01.249Z,6.7
2019-03-12T17:59:01.097Z,5.7
2019-03-12T18:00:01.120Z,4.8
2019-03-12T18:01:01.104Z,4.0
2019-03-12T18:02:01.096Z,3.3
2019-03-12T18:03:01.238Z,2.8
2019-03-12T18:04:01.102Z,2.3
2019-03-12T18:05:06.097Z,1.9
2019-03-12T18:06:01.096Z,1.6
2019-03-12T18:07:01.096Z,1.3
2019-03-12T18:08:01.339Z,1.1
2019-03-12T18:09:01.099Z,0.9
2019-03-12T18:10:01.132Z,0.7
2019-03-12T18:11:01.106Z,0.5
2019-03-12T18:12:02.222Z,0.4
2019-03-12T18:13:01.270Z,0.3
2019-03-12T18:15:01.138Z,0.2
2019-03-12T18:16:01.108Z,0.1
